Terminal Aerodrome Forecast
Issued by NWS

Home | Current Version | Previous Version | Graphics & Text | Print | Product List | Glossary On
Versions: 1 2 3 4 5 6 7 8 9 10 11 12 13 14 15 16
041
FTUS43 KBIS 030405 AAA
TAFJMS
TAF AMD
KJMS 030405Z 0304/0324 36011KT P6SM OVC030
     FM031300 30006KT P6SM SCT025 BKN060
     FM032100 27009KT P6SM OVC025=

USA.gov is the U.S. government's official web portal to all federal, state and local government web resources and services.